臺東航空站 - ATIS

METAR RCFN 281200Z VRB02KT 9999 FEW020 BKN040 26/24 Q1009 NOSIG RMK A2981=

站台狀態:Online
最後更新:2021-09-28 21:00:02